createdAt,value
2019-05-07T00:00:25.485Z,1000.45
2019-05-07T00:01:25.452Z,1000.46
2019-05-07T00:02:25.445Z,1000.45
2019-05-07T00:03:25.441Z,1000.39
2019-05-07T00:04:25.436Z,1000.41
2019-05-07T00:05:25.497Z,1000.43
2019-05-07T00:06:25.399Z,1000.42
2019-05-07T00:07:25.401Z,1000.41
2019-05-07T00:08:25.378Z,1000.47
2019-05-07T00:09:25.381Z,1000.38
2019-05-07T00:10:25.367Z,1000.39
2019-05-07T00:11:25.398Z,1000.33
2019-05-07T00:12:25.335Z,1000.36
2019-05-07T00:13:25.330Z,1000.32
2019-05-07T00:14:25.317Z,1000.29
2019-05-07T00:15:25.304Z,1000.26
2019-05-07T00:16:25.297Z,1000.25
2019-05-07T00:17:25.337Z,1000.20
2019-05-07T00:18:25.267Z,1000.24
2019-05-07T00:19:25.253Z,1000.23
2019-05-07T00:20:25.253Z,1000.22
2019-05-07T00:21:25.235Z,1000.25
2019-05-07T00:22:25.255Z,1000.22
2019-05-07T00:23:25.311Z,1000.23
2019-05-07T00:24:25.219Z,1000.16
2019-05-07T00:25:25.194Z,1000.20
2019-05-07T00:26:25.214Z,1000.21
2019-05-07T00:27:25.192Z,1000.22
2019-05-07T00:28:25.162Z,1000.16
2019-05-07T00:29:25.179Z,1000.13
2019-05-07T00:30:25.141Z,1000.12
2019-05-07T00:31:25.139Z,1000.11
2019-05-07T00:32:25.125Z,1000.13
2019-05-07T00:33:25.105Z,1000.08
2019-05-07T00:34:25.092Z,1000.09
2019-05-07T00:35:25.156Z,1000.10
2019-05-07T00:36:25.080Z,1000.10
2019-05-07T00:37:25.070Z,1000.12
2019-05-07T00:38:25.067Z,1000.09
2019-05-07T00:39:25.037Z,1000.12
2019-05-07T00:40:25.036Z,1000.15
2019-05-07T00:41:25.178Z,1000.12
2019-05-07T00:42:25.006Z,1000.10
2019-05-07T00:43:25.007Z,1000.11
2019-05-07T00:44:24.993Z,1000.05
2019-05-07T00:45:25.008Z,1000.08
2019-05-07T00:46:24.975Z,1000.06
2019-05-07T00:47:25.004Z,1000.08
2019-05-07T00:48:24.940Z,1000.08
2019-05-07T00:49:24.942Z,1000.08
2019-05-07T00:50:24.930Z,1000.03
2019-05-07T00:51:24.910Z,1000.04
2019-05-07T00:52:24.908Z,1000.05
2019-05-07T00:53:24.946Z,1000.10
2019-05-07T00:54:24.887Z,1000.07
2019-05-07T00:55:24.924Z,1000.11
2019-05-07T00:56:24.859Z,1000.12
2019-05-07T00:57:24.881Z,1000.11
2019-05-07T00:58:26.884Z,1000.09
2019-05-07T00:59:24.873Z,1000.06
2019-05-07T01:00:24.815Z,1000.08
2019-05-07T01:01:24.809Z,1000.07
2019-05-07T01:02:24.800Z,1000.12
2019-05-07T01:03:24.833Z,1000.05
2019-05-07T01:04:24.790Z,1000.09
2019-05-07T01:05:24.797Z,1000.09
2019-05-07T01:06:26.610Z,1000.08
2019-05-07T01:07:24.746Z,1000.11
2019-05-07T01:08:24.730Z,1000.09
2019-05-07T01:09:24.720Z,1000.06
2019-05-07T01:10:24.704Z,1000.12
2019-05-07T01:11:24.721Z,1000.11
2019-05-07T01:12:24.686Z,1000.07
2019-05-07T01:13:24.670Z,1000.07
2019-05-07T01:14:24.661Z,1000.06
2019-05-07T01:15:30.667Z,1000.10
2019-05-07T01:16:25.673Z,1000.07
2019-05-07T01:17:24.629Z,1000.12
2019-05-07T01:18:24.617Z,1000.07
2019-05-07T01:19:24.607Z,1000.07
2019-05-07T01:20:24.594Z,1000.05
2019-05-07T01:21:24.589Z,1000.01
2019-05-07T01:22:24.621Z,1000.01
2019-05-07T01:23:24.572Z,1000.04
2019-05-07T01:24:24.548Z,1000.01
2019-05-07T01:25:24.547Z,1000.05
2019-05-07T01:26:24.548Z,1000.05
2019-05-07T01:27:24.524Z,1000.09
2019-05-07T01:28:24.540Z,1000.08
2019-05-07T01:29:24.508Z,1000.05
2019-05-07T01:30:24.489Z,1000.07
2019-05-07T01:31:24.518Z,1000.08
2019-05-07T01:32:24.466Z,1000.08
2019-05-07T01:33:24.455Z,1000.07
2019-05-07T01:34:24.490Z,1000.07
2019-05-07T01:35:24.438Z,1000.04
2019-05-07T01:36:24.463Z,1000.04
2019-05-07T01:37:24.418Z,1000.05
2019-05-07T01:38:24.405Z,1000.06
2019-05-07T01:39:24.384Z,1000.02
2019-05-07T01:40:24.410Z,1000.03
2019-05-07T01:41:24.374Z,1000.02
2019-05-07T01:42:24.372Z,1000.02
2019-05-07T01:43:24.336Z,1000.03
2019-05-07T01:44:24.332Z,1000.05
2019-05-07T01:45:24.859Z,1000.03
2019-05-07T01:46:24.741Z,1000.04
2019-05-07T01:47:24.322Z,1000.04
2019-05-07T01:48:24.287Z,1000.06
2019-05-07T01:49:24.340Z,1000.02
2019-05-07T01:50:24.264Z,1000.06
2019-05-07T01:51:24.252Z,1000.06
2019-05-07T01:52:24.402Z,1000.02
2019-05-07T01:53:24.239Z,1000.08
2019-05-07T01:54:24.236Z,1000.09
2019-05-07T01:55:24.210Z,1000.07
2019-05-07T01:56:24.208Z,1000.06
2019-05-07T01:57:24.192Z,1000.08
2019-05-07T01:58:24.311Z,1000.05
2019-05-07T01:59:24.203Z,1000.02
2019-05-07T02:00:24.161Z,1000.05
2019-05-07T02:01:24.144Z,1000.07
2019-05-07T02:02:24.135Z,1000.09
2019-05-07T02:03:24.134Z,1000.04
2019-05-07T02:04:24.176Z,1000.11
2019-05-07T02:05:24.101Z,1000.09
2019-05-07T02:06:24.107Z,1000.08
2019-05-07T02:07:24.100Z,1000.03
2019-05-07T02:08:24.088Z,1000.03
2019-05-07T02:09:24.068Z,999.99
2019-05-07T02:10:24.101Z,1000.06
2019-05-07T02:11:24.077Z,999.98
2019-05-07T02:12:24.029Z,999.98
2019-05-07T02:13:24.036Z,999.94
2019-05-07T02:14:24.023Z,999.99
2019-05-07T02:15:23.995Z,1000.01
2019-05-07T02:16:24.027Z,999.99
2019-05-07T02:17:23.971Z,1000.02
2019-05-07T02:18:23.973Z,999.99
2019-05-07T02:19:23.951Z,1000.04
2019-05-07T02:20:23.957Z,1000.02
2019-05-07T02:21:23.924Z,1000.05
2019-05-07T02:22:24.028Z,1000.05
2019-05-07T02:23:23.903Z,1000.03
2019-05-07T02:24:23.908Z,1000.01
2019-05-07T02:25:23.902Z,999.98
2019-05-07T02:26:23.871Z,1000.02
2019-05-07T02:27:23.859Z,1000.01
2019-05-07T02:28:23.968Z,1000.01
2019-05-07T02:29:23.843Z,1000.05
2019-05-07T02:30:24.198Z,1000.05
2019-05-07T02:31:23.828Z,1000.02
2019-05-07T02:32:24.278Z,1000.03
2019-05-07T02:33:23.821Z,1000.00
2019-05-07T02:34:23.836Z,999.97
2019-05-07T02:35:23.969Z,1000.02
2019-05-07T02:36:24.124Z,1000.01
2019-05-07T02:37:27.364Z,1000.00
2019-05-07T02:38:24.745Z,999.99
2019-05-07T02:39:24.258Z,999.96
2019-05-07T02:40:23.778Z,999.98
2019-05-07T02:41:23.711Z,1000.04
2019-05-07T02:42:24.025Z,999.91
2019-05-07T02:43:23.695Z,999.96
2019-05-07T02:44:23.673Z,999.94
2019-05-07T02:45:24.091Z,999.98
2019-05-07T02:46:31.214Z,999.95
2019-05-07T02:47:24.642Z,999.92
2019-05-07T02:48:23.889Z,999.91
2019-05-07T02:49:23.729Z,999.93
2019-05-07T02:50:23.612Z,999.92
2019-05-07T02:51:23.977Z,999.89
2019-05-07T02:52:23.659Z,999.93
2019-05-07T02:53:23.595Z,999.93
2019-05-07T02:54:24.358Z,999.93
2019-05-07T02:55:23.569Z,999.92
2019-05-07T02:56:23.808Z,999.94
2019-05-07T02:57:24.204Z,999.91
2019-05-07T02:58:24.244Z,999.91
2019-05-07T02:59:23.766Z,999.94
2019-05-07T03:00:24.370Z,999.91
2019-05-07T03:01:23.516Z,999.88
2019-05-07T03:02:24.278Z,999.85
2019-05-07T03:03:24.711Z,999.91
2019-05-07T03:04:25.093Z,999.91
2019-05-07T03:05:23.462Z,999.90
2019-05-07T03:06:23.550Z,999.92
2019-05-07T03:07:24.219Z,999.93
2019-05-07T03:08:27.207Z,999.94
2019-05-07T03:09:23.414Z,999.91
2019-05-07T03:10:24.066Z,999.93
2019-05-07T03:11:23.436Z,999.97
2019-05-07T03:12:23.908Z,999.88
2019-05-07T03:13:24.012Z,999.92
2019-05-07T03:14:23.678Z,999.93
2019-05-07T03:15:24.157Z,999.94
2019-05-07T03:16:38.792Z,999.91
2019-05-07T03:17:24.870Z,999.94
2019-05-07T03:18:23.478Z,999.97
2019-05-07T03:19:24.287Z,999.95
2019-05-07T03:20:23.291Z,999.93
2019-05-07T03:21:23.768Z,999.93
2019-05-07T03:22:23.558Z,999.95
2019-05-07T03:23:23.254Z,999.90
2019-05-07T03:24:23.263Z,999.90
2019-05-07T03:25:23.322Z,999.88
2019-05-07T03:26:23.286Z,999.88
2019-05-07T03:27:23.741Z,999.85
2019-05-07T03:28:23.381Z,999.83
2019-05-07T03:29:23.877Z,999.83
2019-05-07T03:30:25.948Z,999.84
2019-05-07T03:31:26.003Z,999.83
2019-05-07T03:32:27.646Z,999.84
2019-05-07T03:33:26.432Z,999.82
2019-05-07T03:34:25.615Z,999.87
2019-05-07T03:35:27.205Z,999.78
2019-05-07T03:36:26.204Z,999.89
2019-05-07T03:37:23.459Z,999.79
2019-05-07T03:38:23.090Z,999.84
2019-05-07T03:39:24.043Z,999.79
2019-05-07T03:40:23.260Z,999.86
2019-05-07T03:41:23.061Z,999.80
2019-05-07T03:42:23.705Z,999.80
2019-05-07T03:43:23.052Z,999.79
2019-05-07T03:44:23.834Z,999.77
2019-05-07T03:45:23.315Z,999.79
2019-05-07T03:46:23.585Z,999.79
2019-05-07T03:47:23.915Z,999.74
2019-05-07T03:48:24.086Z,999.71
2019-05-07T03:49:22.991Z,999.76
2019-05-07T03:50:23.353Z,999.76
2019-05-07T03:51:23.756Z,999.75
2019-05-07T03:52:24.484Z,999.72
2019-05-07T03:53:23.524Z,999.76
2019-05-07T03:54:23.963Z,999.74
2019-05-07T03:55:23.479Z,999.73
2019-05-07T03:56:23.676Z,999.76
2019-05-07T03:57:23.685Z,999.76
2019-05-07T03:58:23.674Z,999.76
2019-05-07T03:59:23.369Z,999.82
2019-05-07T04:00:23.939Z,999.81
2019-05-07T04:01:24.017Z,999.78
2019-05-07T04:02:23.866Z,999.81
2019-05-07T04:03:24.288Z,999.83
2019-05-07T04:04:23.174Z,999.78
2019-05-07T04:05:23.364Z,999.82
2019-05-07T04:06:23.506Z,999.79
2019-05-07T04:07:23.424Z,999.83
2019-05-07T04:08:23.582Z,999.75
2019-05-07T04:09:24.175Z,999.80
2019-05-07T04:10:23.355Z,999.82
2019-05-07T04:11:23.234Z,999.82
2019-05-07T04:12:23.782Z,999.80
2019-05-07T04:13:23.845Z,999.80
2019-05-07T04:14:23.283Z,999.77
2019-05-07T04:15:23.422Z,999.80
2019-05-07T04:16:23.918Z,999.78
2019-05-07T04:17:26.446Z,999.78
2019-05-07T04:18:23.751Z,999.79
2019-05-07T04:19:23.600Z,999.82
2019-05-07T04:20:23.925Z,999.78
2019-05-07T04:21:23.334Z,999.74
2019-05-07T04:22:25.177Z,999.80
2019-05-07T04:23:23.794Z,999.79
2019-05-07T04:24:23.530Z,999.80
2019-05-07T04:25:23.985Z,999.77
2019-05-07T04:26:23.384Z,999.82
2019-05-07T04:27:23.878Z,999.78
2019-05-07T04:28:23.582Z,999.77
2019-05-07T04:29:23.237Z,999.78
2019-05-07T04:30:23.501Z,999.74
2019-05-07T04:31:23.058Z,999.76
2019-05-07T04:32:23.184Z,999.74
2019-05-07T04:33:23.745Z,999.75
2019-05-07T04:34:23.754Z,999.76
2019-05-07T04:35:24.385Z,999.74
2019-05-07T04:36:23.153Z,999.75
2019-05-07T04:37:24.014Z,999.73
2019-05-07T04:38:23.820Z,999.72
2019-05-07T04:39:23.257Z,999.68
2019-05-07T04:40:23.964Z,999.69
2019-05-07T04:41:23.332Z,999.67
2019-05-07T04:42:24.278Z,999.71
2019-05-07T04:43:23.227Z,999.68
2019-05-07T04:44:23.471Z,999.68
2019-05-07T04:45:23.270Z,999.68
2019-05-07T04:46:23.620Z,999.66
2019-05-07T04:47:34.665Z,999.66
2019-05-07T04:48:23.690Z,999.65
2019-05-07T04:49:23.823Z,999.67
2019-05-07T04:50:37.827Z,999.65
2019-05-07T04:51:23.478Z,999.70
2019-05-07T04:52:23.841Z,999.65
2019-05-07T04:53:23.653Z,999.72
2019-05-07T04:54:23.654Z,999.71
2019-05-07T04:55:22.917Z,999.67
2019-05-07T04:56:23.828Z,999.66
2019-05-07T04:57:23.662Z,999.69
2019-05-07T04:58:23.715Z,999.66
2019-05-07T04:59:23.684Z,999.68
2019-05-07T05:00:22.934Z,999.67
2019-05-07T05:01:23.407Z,999.70
2019-05-07T05:02:23.054Z,999.68
2019-05-07T05:03:23.811Z,999.66
2019-05-07T05:04:30.228Z,999.67
2019-05-07T05:05:23.768Z,999.68
2019-05-07T05:06:24.229Z,999.74
2019-05-07T05:07:22.556Z,999.67
2019-05-07T05:08:23.409Z,999.69
2019-05-07T05:09:23.303Z,999.70
2019-05-07T05:10:23.114Z,999.77
2019-05-07T05:11:23.767Z,999.73
2019-05-07T05:12:23.037Z,999.64
2019-05-07T05:13:23.500Z,999.61
2019-05-07T05:14:22.914Z,999.67
2019-05-07T05:15:22.282Z,999.67
2019-05-07T05:16:22.488Z,999.65
2019-05-07T05:17:22.483Z,999.67
2019-05-07T05:18:22.165Z,999.66
2019-05-07T05:19:23.028Z,999.70
2019-05-07T05:20:22.237Z,999.66
2019-05-07T05:21:22.782Z,999.67
2019-05-07T05:22:22.232Z,999.69
2019-05-07T05:23:22.781Z,999.68
2019-05-07T05:24:22.232Z,999.70
2019-05-07T05:25:22.737Z,999.72
2019-05-07T05:26:22.021Z,999.67
2019-05-07T05:27:22.596Z,999.67
2019-05-07T05:28:22.043Z,999.72
2019-05-07T05:29:22.716Z,999.73
2019-05-07T05:30:22.049Z,999.71
2019-05-07T05:31:22.350Z,999.68
2019-05-07T05:32:22.698Z,999.72
2019-05-07T05:33:23.421Z,999.73
2019-05-07T05:34:22.325Z,999.71
2019-05-07T05:35:22.262Z,999.71
2019-05-07T05:36:22.296Z,999.69
2019-05-07T05:37:22.668Z,999.69
2019-05-07T05:38:22.306Z,999.71
2019-05-07T05:39:22.541Z,999.72
2019-05-07T05:40:22.725Z,999.76
2019-05-07T05:41:22.597Z,999.72
2019-05-07T05:42:22.576Z,999.77
2019-05-07T05:43:22.329Z,999.72
2019-05-07T05:44:22.795Z,999.74
2019-05-07T05:45:21.880Z,999.69
2019-05-07T05:46:22.640Z,999.71
2019-05-07T05:47:22.243Z,999.72
2019-05-07T05:48:22.383Z,999.72
2019-05-07T05:49:22.989Z,999.72
2019-05-07T05:50:21.915Z,999.78
2019-05-07T05:51:22.825Z,999.74
2019-05-07T05:52:22.148Z,999.76
2019-05-07T05:53:21.901Z,999.75
2019-05-07T05:54:22.303Z,999.74
2019-05-07T05:55:22.689Z,999.74
2019-05-07T05:56:22.909Z,999.70
2019-05-07T05:57:23.023Z,999.74
2019-05-07T05:58:24.195Z,999.74
2019-05-07T05:59:27.785Z,999.76
2019-05-07T06:00:22.547Z,999.73
2019-05-07T06:01:22.595Z,999.70
2019-05-07T06:02:22.768Z,999.73
2019-05-07T06:03:22.691Z,999.67
2019-05-07T06:04:22.132Z,999.68
2019-05-07T06:05:22.118Z,999.68
2019-05-07T06:06:21.987Z,999.68
2019-05-07T06:07:22.668Z,999.66
2019-05-07T06:08:23.863Z,999.69
2019-05-07T06:09:22.037Z,999.67
2019-05-07T06:10:22.455Z,999.68
2019-05-07T06:11:21.919Z,999.64
2019-05-07T06:12:22.134Z,999.61
2019-05-07T06:13:23.112Z,999.63
2019-05-07T06:14:22.215Z,999.64
2019-05-07T06:15:22.255Z,999.59
2019-05-07T06:16:22.039Z,999.62
2019-05-07T06:17:22.418Z,999.54
2019-05-07T06:18:23.880Z,999.60
2019-05-07T06:19:22.580Z,999.62
2019-05-07T06:20:22.624Z,999.61
2019-05-07T06:21:21.376Z,999.63
2019-05-07T06:22:22.334Z,999.63
2019-05-07T06:23:22.529Z,999.64
2019-05-07T06:24:22.643Z,999.59
2019-05-07T06:25:24.602Z,999.60
2019-05-07T06:26:22.712Z,999.60
2019-05-07T06:27:22.944Z,999.63
2019-05-07T06:28:22.369Z,999.62
2019-05-07T06:29:23.139Z,999.62
2019-05-07T06:30:22.752Z,999.67
2019-05-07T06:31:22.145Z,999.68
2019-05-07T06:32:22.962Z,999.68
2019-05-07T06:33:22.958Z,999.68
2019-05-07T06:34:21.965Z,999.66
2019-05-07T06:35:22.959Z,999.73
2019-05-07T06:36:22.006Z,999.70
2019-05-07T06:37:22.837Z,999.72
2019-05-07T06:38:21.978Z,999.68
2019-05-07T06:39:22.143Z,999.66
2019-05-07T06:40:24.037Z,999.67
2019-05-07T06:41:22.652Z,999.69
2019-05-07T06:42:22.146Z,999.68
2019-05-07T06:43:21.880Z,999.69
2019-05-07T06:44:22.399Z,999.70
2019-05-07T06:45:22.748Z,999.63
2019-05-07T06:46:23.049Z,999.63
2019-05-07T06:47:22.192Z,999.66
2019-05-07T06:48:34.667Z,999.69
2019-05-07T06:49:22.366Z,999.70
2019-05-07T06:50:22.121Z,999.67
2019-05-07T06:51:22.025Z,999.67
2019-05-07T06:52:22.447Z,999.65
2019-05-07T06:53:22.236Z,999.65
2019-05-07T06:54:22.552Z,999.67
2019-05-07T06:55:22.810Z,999.65
2019-05-07T06:56:22.887Z,999.64
2019-05-07T06:57:22.228Z,999.68
2019-05-07T06:58:21.952Z,999.62
2019-05-07T06:59:22.506Z,999.64
2019-05-07T07:00:22.589Z,999.69
2019-05-07T07:01:22.787Z,999.68
2019-05-07T07:02:22.552Z,999.70
2019-05-07T07:03:22.312Z,999.69
2019-05-07T07:04:22.476Z,999.67
2019-05-07T07:05:25.329Z,999.63
2019-05-07T07:06:22.955Z,999.67
2019-05-07T07:07:27.379Z,999.60
2019-05-07T07:08:23.015Z,999.63
2019-05-07T07:09:22.255Z,999.55
2019-05-07T07:10:22.624Z,999.57
2019-05-07T07:11:22.413Z,999.51
2019-05-07T07:12:24.007Z,999.53
2019-05-07T07:13:22.803Z,999.51
2019-05-07T07:14:22.718Z,999.51
2019-05-07T07:15:23.066Z,999.52
2019-05-07T07:16:22.580Z,999.47
2019-05-07T07:17:22.316Z,999.51
2019-05-07T07:18:22.913Z,999.53
2019-05-07T07:19:20.682Z,999.52
2019-05-07T07:20:21.856Z,999.51
2019-05-07T07:21:21.947Z,999.52
2019-05-07T07:22:22.233Z,999.52
2019-05-07T07:23:22.593Z,999.50
2019-05-07T07:24:22.156Z,999.46
2019-05-07T07:25:22.731Z,999.45
2019-05-07T07:26:22.102Z,999.44
2019-05-07T07:27:22.770Z,999.41
2019-05-07T07:28:21.980Z,999.39
2019-05-07T07:29:22.000Z,999.35
2019-05-07T07:30:21.820Z,999.39
2019-05-07T07:31:22.661Z,999.34
2019-05-07T07:32:22.129Z,999.39
2019-05-07T07:33:22.426Z,999.38
2019-05-07T07:34:22.755Z,999.41
2019-05-07T07:35:22.423Z,999.40
2019-05-07T07:36:22.564Z,999.35
2019-05-07T07:37:22.798Z,999.37
2019-05-07T07:38:22.274Z,999.40
2019-05-07T07:39:22.038Z,999.33
2019-05-07T07:40:22.412Z,999.34
2019-05-07T07:41:22.226Z,999.39
2019-05-07T07:42:22.797Z,999.40
2019-05-07T07:43:21.858Z,999.37
2019-05-07T07:44:22.365Z,999.37
2019-05-07T07:45:22.818Z,999.35
2019-05-07T07:46:22.167Z,999.36
2019-05-07T07:47:22.346Z,999.31
2019-05-07T07:48:24.066Z,999.34
2019-05-07T07:49:22.261Z,999.31
2019-05-07T07:50:22.421Z,999.36
2019-05-07T07:51:34.259Z,999.37
2019-05-07T07:52:22.990Z,999.35
2019-05-07T07:53:22.482Z,999.33
2019-05-07T07:54:22.434Z,999.30
2019-05-07T07:55:22.283Z,999.28
2019-05-07T07:56:20.320Z,999.29
2019-05-07T07:57:21.799Z,999.28
2019-05-07T07:58:22.140Z,999.30
2019-05-07T07:59:22.167Z,999.30
2019-05-07T08:00:20.224Z,999.35
2019-05-07T08:01:22.465Z,999.39
2019-05-07T08:02:20.241Z,999.32
2019-05-07T08:03:22.418Z,999.31
2019-05-07T08:04:22.674Z,999.33
2019-05-07T08:05:21.933Z,999.33
2019-05-07T08:06:22.411Z,999.31
2019-05-07T08:07:20.183Z,999.31
2019-05-07T08:08:21.938Z,999.31
2019-05-07T08:09:23.999Z,999.32
2019-05-07T08:10:22.118Z,999.26
2019-05-07T08:11:21.969Z,999.31
2019-05-07T08:12:22.162Z,999.25
2019-05-07T08:13:20.077Z,999.26
2019-05-07T08:14:21.938Z,999.27
2019-05-07T08:15:23.697Z,999.26
2019-05-07T08:16:22.104Z,999.30
2019-05-07T08:17:22.066Z,999.25
2019-05-07T08:18:22.158Z,999.23
2019-05-07T08:19:24.395Z,999.26
2019-05-07T08:20:22.198Z,999.25
2019-05-07T08:21:22.524Z,999.24
2019-05-07T08:22:22.365Z,999.25
2019-05-07T08:23:19.993Z,999.21
2019-05-07T08:24:19.970Z,999.22
2019-05-07T08:25:21.824Z,999.26
2019-05-07T08:26:21.925Z,999.26
2019-05-07T08:27:22.023Z,999.23
2019-05-07T08:28:19.929Z,999.23
2019-05-07T08:29:19.914Z,999.22
2019-05-07T08:30:22.098Z,999.23
2019-05-07T08:31:19.922Z,999.24
2019-05-07T08:32:22.104Z,999.20
2019-05-07T08:33:19.883Z,999.19
2019-05-07T08:34:21.868Z,999.19
2019-05-07T08:35:21.868Z,999.22
2019-05-07T08:36:19.831Z,999.20
2019-05-07T08:37:19.831Z,999.21
2019-05-07T08:38:21.820Z,999.15
2019-05-07T08:39:24.705Z,999.18
2019-05-07T08:40:22.056Z,999.15
2019-05-07T08:41:22.491Z,999.19
2019-05-07T08:42:19.792Z,999.20
2019-05-07T08:43:21.728Z,999.16
2019-05-07T08:44:22.191Z,999.15
2019-05-07T08:45:24.201Z,999.17
2019-05-07T08:46:22.328Z,999.20
2019-05-07T08:47:19.712Z,999.16
2019-05-07T08:48:21.638Z,999.18
2019-05-07T08:49:33.286Z,999.11
2019-05-07T08:50:22.251Z,999.13
2019-05-07T08:51:19.663Z,999.15
2019-05-07T08:52:19.655Z,999.15
2019-05-07T08:53:19.662Z,999.11
2019-05-07T08:54:19.644Z,999.10
2019-05-07T08:55:21.653Z,999.05
2019-05-07T08:56:19.657Z,999.02
2019-05-07T08:57:19.601Z,999.06
2019-05-07T08:58:19.590Z,999.02
2019-05-07T08:59:19.588Z,999.00
2019-05-07T09:00:19.574Z,999.04
2019-05-07T09:01:19.555Z,999.03
2019-05-07T09:02:21.783Z,999.08
2019-05-07T09:03:22.477Z,999.00
2019-05-07T09:04:21.997Z,998.95
2019-05-07T09:05:19.516Z,998.97
2019-05-07T09:06:21.979Z,998.96
2019-05-07T09:07:21.669Z,998.95
2019-05-07T09:08:21.731Z,998.91
2019-05-07T09:09:22.047Z,998.92
2019-05-07T09:10:21.699Z,998.91
2019-05-07T09:11:19.461Z,998.94
2019-05-07T09:12:19.443Z,998.91
2019-05-07T09:13:19.436Z,998.88
2019-05-07T09:14:19.497Z,998.93
2019-05-07T09:15:19.413Z,998.89
2019-05-07T09:16:19.396Z,998.84
2019-05-07T09:17:19.409Z,998.90
2019-05-07T09:18:19.374Z,998.80
2019-05-07T09:19:21.558Z,998.80
2019-05-07T09:20:19.380Z,998.85
2019-05-07T09:21:19.363Z,998.80
2019-05-07T09:22:19.386Z,998.78
2019-05-07T09:23:19.324Z,998.80
2019-05-07T09:24:19.319Z,998.78
2019-05-07T09:25:19.310Z,998.78
2019-05-07T09:26:19.350Z,998.80
2019-05-07T09:27:19.308Z,998.78
2019-05-07T09:28:19.269Z,998.74
2019-05-07T09:29:19.322Z,998.77
2019-05-07T09:30:19.263Z,998.78
2019-05-07T09:31:19.222Z,998.75
2019-05-07T09:32:19.352Z,998.70
2019-05-07T09:33:19.201Z,998.64
2019-05-07T09:34:19.200Z,998.70
2019-05-07T09:35:19.181Z,998.68
2019-05-07T09:36:19.234Z,998.61
2019-05-07T09:37:19.168Z,998.61
2019-05-07T09:38:19.288Z,998.59
2019-05-07T09:39:19.153Z,998.56
2019-05-07T09:40:19.128Z,998.59
2019-05-07T09:41:19.121Z,998.62
2019-05-07T09:42:19.104Z,998.60
2019-05-07T09:43:19.119Z,998.62
2019-05-07T09:44:19.151Z,998.60
2019-05-07T09:45:19.075Z,998.53
2019-05-07T09:46:20.711Z,998.57
2019-05-07T09:47:19.057Z,998.56
2019-05-07T09:48:19.044Z,998.52
2019-05-07T09:49:19.059Z,998.50
2019-05-07T09:50:19.228Z,998.55
2019-05-07T09:51:19.018Z,998.57
2019-05-07T09:52:19.011Z,998.48
2019-05-07T09:53:18.985Z,998.51
2019-05-07T09:54:18.994Z,998.54
2019-05-07T09:55:18.967Z,998.57
2019-05-07T09:56:18.992Z,998.52
2019-05-07T09:57:28.247Z,998.59
2019-05-07T09:58:35.008Z,998.57
2019-05-07T09:59:21.726Z,998.51
2019-05-07T10:00:18.907Z,998.48
2019-05-07T10:01:18.910Z,998.49
2019-05-07T10:02:18.976Z,998.46
2019-05-07T10:03:18.911Z,998.52
2019-05-07T10:04:18.868Z,998.53
2019-05-07T10:05:18.851Z,998.52
2019-05-07T10:06:18.862Z,998.53
2019-05-07T10:07:18.834Z,998.49
2019-05-07T10:08:18.874Z,998.50
2019-05-07T10:09:18.820Z,998.49
2019-05-07T10:10:18.796Z,998.51
2019-05-07T10:11:18.787Z,998.52
2019-05-07T10:12:18.791Z,998.52
2019-05-07T10:13:18.763Z,998.51
2019-05-07T10:14:18.811Z,998.52
2019-05-07T10:15:18.743Z,998.53
2019-05-07T10:16:18.733Z,998.50
2019-05-07T10:17:18.721Z,998.43
2019-05-07T10:18:18.730Z,998.45
2019-05-07T10:19:18.706Z,998.50
2019-05-07T10:20:22.341Z,998.44
2019-05-07T10:21:18.688Z,998.45
2019-05-07T10:22:18.673Z,998.44
2019-05-07T10:23:18.676Z,998.42
2019-05-07T10:24:18.656Z,998.42
2019-05-07T10:25:18.637Z,998.47
2019-05-07T10:26:18.707Z,998.47
2019-05-07T10:27:18.708Z,998.43
2019-05-07T10:28:18.609Z,998.44
2019-05-07T10:29:18.592Z,998.43
2019-05-07T10:30:18.594Z,998.50
2019-05-07T10:31:18.583Z,998.44
2019-05-07T10:32:18.666Z,998.48
2019-05-07T10:33:18.553Z,998.46
2019-05-07T10:34:18.558Z,998.40
2019-05-07T10:35:18.534Z,998.37
2019-05-07T10:36:18.593Z,998.40
2019-05-07T10:37:18.503Z,998.39
2019-05-07T10:38:18.545Z,998.40
2019-05-07T10:39:18.520Z,998.43
2019-05-07T10:40:18.470Z,998.35
2019-05-07T10:41:18.514Z,998.36
2019-05-07T10:42:18.530Z,998.36
2019-05-07T10:43:18.457Z,998.32
2019-05-07T10:44:18.474Z,998.28
2019-05-07T10:45:18.434Z,998.26
2019-05-07T10:46:18.402Z,998.28
2019-05-07T10:47:18.399Z,998.26
2019-05-07T10:48:18.402Z,998.28
2019-05-07T10:49:18.377Z,998.24
2019-05-07T10:50:31.717Z,998.24
2019-05-07T10:51:19.367Z,998.24
2019-05-07T10:52:18.396Z,998.22
2019-05-07T10:53:18.371Z,998.17
2019-05-07T10:54:18.311Z,998.17
2019-05-07T10:55:18.366Z,998.17
2019-05-07T10:56:18.350Z,998.20
2019-05-07T10:57:18.288Z,998.23
2019-05-07T10:58:18.283Z,998.19
2019-05-07T10:59:18.281Z,998.27
2019-05-07T11:00:18.278Z,998.22
2019-05-07T11:01:18.338Z,998.24
2019-05-07T11:02:18.275Z,998.24
2019-05-07T11:03:18.218Z,998.22
2019-05-07T11:04:18.207Z,998.23
2019-05-07T11:05:18.218Z,998.15
2019-05-07T11:06:18.189Z,998.16
2019-05-07T11:07:18.179Z,998.17
2019-05-07T11:08:18.285Z,998.19
2019-05-07T11:09:18.158Z,998.21
2019-05-07T11:10:18.171Z,998.18
2019-05-07T11:11:18.147Z,998.13
2019-05-07T11:12:18.115Z,998.13
2019-05-07T11:13:18.120Z,998.11
2019-05-07T11:14:18.138Z,998.09
2019-05-07T11:15:18.079Z,998.09
2019-05-07T11:16:18.079Z,998.05
2019-05-07T11:17:18.057Z,998.00
2019-05-07T11:18:18.049Z,998.01
2019-05-07T11:19:19.043Z,998.03
2019-05-07T11:20:18.077Z,997.97
2019-05-07T11:21:18.059Z,997.98
2019-05-07T11:22:18.009Z,998.01
2019-05-07T11:23:18.011Z,997.98
2019-05-07T11:24:17.985Z,998.00
2019-05-07T11:25:17.972Z,997.98
2019-05-07T11:26:17.988Z,997.96
2019-05-07T11:27:17.954Z,997.91
2019-05-07T11:28:17.943Z,997.87
2019-05-07T11:29:17.964Z,997.95
2019-05-07T11:30:18.164Z,997.89
2019-05-07T11:31:17.998Z,997.84
2019-05-07T11:32:18.220Z,997.84
2019-05-07T11:33:17.905Z,997.78
2019-05-07T11:34:17.872Z,997.87
2019-05-07T11:35:17.861Z,997.79
2019-05-07T11:36:17.849Z,997.80
2019-05-07T11:37:17.840Z,997.82
2019-05-07T11:38:21.497Z,997.83
2019-05-07T11:39:18.816Z,997.77
2019-05-07T11:40:19.975Z,997.81
2019-05-07T11:41:17.811Z,997.79
2019-05-07T11:42:17.783Z,997.74
2019-05-07T11:43:17.783Z,997.73
2019-05-07T11:44:17.795Z,997.74
2019-05-07T11:45:17.754Z,997.76
2019-05-07T11:46:17.739Z,997.76
2019-05-07T11:47:17.820Z,997.77
2019-05-07T11:48:17.730Z,997.71
2019-05-07T11:49:17.707Z,997.68
2019-05-07T11:50:17.746Z,997.70
2019-05-07T11:51:17.693Z,997.72
2019-05-07T11:52:17.673Z,997.69
2019-05-07T11:53:17.673Z,997.69
2019-05-07T11:54:17.660Z,997.69
2019-05-07T11:55:17.647Z,997.69
2019-05-07T11:56:17.684Z,997.64
2019-05-07T11:57:17.731Z,997.59
2019-05-07T11:58:17.644Z,997.62
2019-05-07T11:59:18.475Z,997.58
2019-05-07T12:00:17.611Z,997.61
2019-05-07T12:01:17.577Z,997.62
2019-05-07T12:02:17.604Z,997.62
2019-05-07T12:03:17.585Z,997.59
2019-05-07T12:04:17.552Z,997.61
2019-05-07T12:05:17.538Z,997.62
2019-05-07T12:06:17.580Z,997.58
2019-05-07T12:07:17.540Z,997.58
2019-05-07T12:08:17.531Z,997.57
2019-05-07T12:09:17.510Z,997.58
2019-05-07T12:10:17.493Z,997.59
2019-05-07T12:11:17.479Z,997.57
2019-05-07T12:12:17.474Z,997.62
2019-05-07T12:13:17.448Z,997.59
2019-05-07T12:14:27.989Z,997.62
2019-05-07T12:15:18.443Z,997.57
2019-05-07T12:16:17.493Z,997.52
2019-05-07T12:17:17.416Z,997.52
2019-05-07T12:18:17.401Z,997.53
2019-05-07T12:19:17.471Z,997.70
2019-05-07T12:20:17.409Z,997.49
2019-05-07T12:21:20.905Z,997.47
2019-05-07T12:22:17.374Z,997.46
2019-05-07T12:23:17.345Z,997.43